Time;durP1;ratioP1;P1;durP2;ratioP2;P2;SDS_P1;SDS_P2;PMS_P1;PMS_P2;Temp;Humidity;BMP_temperature;BMP_pressure;BME280_temperature;BME280_humidity;BME280_pressure;Samples;Min_cycle;Max_cycle;Signal;HPM_P1;HPM_P2
2022/09/06 00:09:04;;;;;;;3.87;2.12;;;;;;;16.79;100.00;97898.69;18238834;32;20066;-62
2022/09/06 00:19:07;;;;;;;5.78;2.30;;;;;;;16.73;100.00;97889.78;18238013;32;20137;-62
2022/09/06 00:29:09;;;;;;;2.87;2.25;;;;;;;16.69;100.00;97909.78;18257050;32;20488;-62
2022/09/06 00:39:11;;;;;;;7.03;2.40;;;;;;;16.63;100.00;97905.56;18359168;32;20096;-62
2022/09/06 00:49:23;;;;;;;5.87;2.50;;;;;;;16.56;100.00;97909.50;18372894;32;20438;-62
2022/09/06 00:59:30;;;;;;;4.85;2.53;;;;;;;16.54;100.00;97921.81;18435431;32;20124;-62
2022/09/06 01:10:03;;;;;;;3.60;1.95;;;;;;;16.53;100.00;97922.97;18298536;32;20100;-62
2022/09/06 01:20:30;;;;;;;4.97;2.05;;;;;;;16.59;100.00;97928.03;18297705;32;20084;-62
2022/09/06 01:30:39;;;;;;;3.00;2.28;;;;;;;16.62;100.00;97928.50;18297332;32;20078;-62
2022/09/06 01:40:41;;;;;;;2.40;1.80;;;;;;;16.57;100.00;97935.69;18418492;32;20053;-63
2022/09/06 01:51:24;;;;;;;3.65;2.10;;;;;;;16.54;100.00;97935.47;18432811;32;20078;-62
2022/09/06 02:01:29;;;;;;;3.70;1.75;;;;;;;16.47;100.00;97929.63;18417854;32;20076;-62
2022/09/06 02:11:44;;;;;;;2.95;2.10;;;;;;;16.49;100.00;97939.12;18418275;32;20058;-62
2022/09/06 02:21:50;;;;;;;3.25;1.95;;;;;;;16.55;100.00;97948.03;18431703;32;20377;-62
2022/09/06 02:31:59;;;;;;;4.55;2.70;;;;;;;16.53;100.00;97939.34;18431375;32;20083;-62
2022/09/06 02:42:01;;;;;;;4.22;2.05;;;;;;;16.59;100.00;97933.47;18430959;32;20445;-62
2022/09/06 02:52:04;;;;;;;2.92;2.17;;;;;;;16.66;100.00;97940.44;18356623;32;20066;-62
2022/09/06 03:02:06;;;;;;;6.50;2.60;;;;;;;16.68;100.00;97928.13;18356827;32;20081;-62
2022/09/06 03:12:09;;;;;;;4.87;2.15;;;;;;;16.67;100.00;97910.09;18217433;32;20078;-63
2022/09/06 03:22:12;;;;;;;3.60;2.05;;;;;;;16.59;100.00;97900.72;18236901;32;20074;-62
2022/09/06 03:32:14;;;;;;;2.93;2.20;;;;;;;16.52;100.00;97891.31;18304371;32;20070;-62
2022/09/06 03:42:17;;;;;;;3.97;2.17;;;;;;;16.41;100.00;97901.62;18399053;32;20057;-62
2022/09/06 03:52:19;;;;;;;5.00;2.42;;;;;;;16.27;100.00;97907.88;18425836;32;20072;-62
2022/09/06 04:02:21;;;;;;;4.28;2.33;;;;;;;16.12;100.00;97908.16;18425813;32;20057;-62
2022/09/06 04:12:24;;;;;;;2.42;2.10;;;;;;;16.01;100.00;97907.53;18238525;32;20488;-62
2022/09/06 04:22:26;;;;;;;3.55;2.53;;;;;;;15.93;100.00;97924.56;18225515;32;20085;-62
2022/09/06 04:32:31;;;;;;;2.58;2.12;;;;;;;15.86;100.00;97924.97;18236552;32;20070;-63
2022/09/06 04:42:34;;;;;;;4.87;2.50;;;;;;;15.81;100.00;97919.59;18395299;32;20104;-62
2022/09/06 04:52:36;;;;;;;3.03;2.40;;;;;;;15.71;100.00;97936.88;18436415;32;20057;-62
2022/09/06 05:02:38;;;;;;;2.50;2.17;;;;;;;15.61;100.00;97936.25;18422152;32;20060;-62
2022/09/06 05:12:41;;;;;;;3.08;2.47;;;;;;;15.55;100.00;97947.25;18222314;32;20066;-62
2022/09/06 05:22:53;;;;;;;5.22;2.85;;;;;;;15.67;100.00;97945.97;18110000;32;20126;-62
2022/09/06 05:32:55;;;;;;;3.83;2.65;;;;;;;15.86;100.00;97974.03;18109320;32;20133;-62
2022/09/06 05:42:58;;;;;;;6.87;2.85;;;;;;;16.03;100.00;97970.78;18259313;32;20065;-62
2022/09/06 05:53:02;;;;;;;4.37;2.10;;;;;;;16.21;100.00;97977.28;18392777;32;20050;-62
2022/09/06 06:03:07;;;;;;;3.15;2.37;;;;;;;16.43;100.00;97984.81;18433124;32;20095;-62
2022/09/06 06:13:09;;;;;;;4.20;2.72;;;;;;;16.72;100.00;97988.41;18418681;32;20045;-62
2022/09/06 06:23:15;;;;;;;3.12;2.37;;;;;;;16.97;100.00;97983.56;18431482;32;20066;-62
2022/09/06 06:33:17;;;;;;;3.33;2.17;;;;;;;17.17;100.00;98007.75;18294236;32;20123;-62
2022/09/06 06:43:21;;;;;;;3.08;1.90;;;;;;;17.30;100.00;98017.03;18293806;32;20074;-62
2022/09/06 06:53:26;;;;;;;2.12;1.65;;;;;;;17.52;100.00;98016.28;18287653;32;20076;-62
2022/09/06 07:03:29;;;;;;;2.30;2.10;;;;;;;17.97;100.00;98022.97;18415065;32;20065;-62
2022/09/06 07:13:33;;;;;;;2.40;1.90;;;;;;;18.25;100.00;98024.47;18442980;32;20076;-62
2022/09/06 07:23:36;;;;;;;4.30;2.70;;;;;;;18.18;100.00;98018.59;18441952;32;20103;-62
2022/09/06 07:34:01;;;;;;;6.27;2.80;;;;;;;18.02;100.00;97979.88;18429946;32;20058;-62
2022/09/06 07:44:07;;;;;;;3.78;2.30;;;;;;;18.10;100.00;97953.69;18426732;32;20133;-62
2022/09/06 07:54:14;;;;;;;4.47;2.97;;;;;;;18.41;100.00;97993.97;18425963;32;20049;-62
2022/09/06 08:04:35;;;;;;;8.57;3.50;;;;;;;18.92;100.00;97986.31;18417084;32;20063;-63
2022/09/06 08:14:38;;;;;;;4.72;3.00;;;;;;;20.17;100.00;97995.97;18438963;32;20476;-62
2022/09/06 08:24:41;;;;;;;6.25;3.10;;;;;;;21.08;100.00;98006.09;18438227;32;20084;-62
2022/09/06 08:34:45;;;;;;;8.18;4.50;;;;;;;21.63;100.00;98005.09;18438308;32;20146;-63
2022/09/06 08:44:52;;;;;;;5.93;3.92;;;;;;;21.84;93.85;98015.31;18423802;32;20076;-62
2022/09/06 08:55:29;;;;;;;6.03;3.97;;;;;;;22.22;90.69;98027.31;18411714;32;20042;-63
2022/09/06 09:05:36;;;;;;;10.07;4.03;;;;;;;22.55;91.13;98027.31;18421716;32;20125;-63
2022/09/06 09:15:39;;;;;;;9.63;3.92;;;;;;;22.81;82.77;98012.44;18434814;32;20057;-62
2022/09/06 09:25:45;;;;;;;11.05;3.10;;;;;;;23.31;80.94;98008.59;18435204;32;20057;-63
2022/09/06 09:36:12;;;;;;;8.27;3.30;;;;;;;23.71;84.48;97995.16;18420112;32;20368;-63
2022/09/06 09:46:38;;;;;;;;;;;;;;;;;;;;;
2022/09/06 09:57:16;;;;;;;7.82;2.70;;;;;;;25.22;76.83;97974.31;18432948;32;20475;-63
2022/09/06 10:07:46;;;;;;;6.57;2.42;;;;;;;25.54;74.35;97947.38;18432195;32;20072;-63
2022/09/06 10:17:57;;;;;;;5.80;2.00;;;;;;;25.43;72.55;97934.47;18432058;32;20094;-63
2022/09/06 10:28:23;;;;;;;5.32;2.20;;;;;;;25.23;77.27;97953.78;18417608;32;20118;-63
2022/09/06 10:38:52;;;;;;;4.75;1.83;;;;;;;25.16;74.07;97965.47;18431302;32;20057;-63
2022/09/06 10:48:57;;;;;;;4.10;1.80;;;;;;;24.66;82.95;97961.50;18431017;32;20057;-64
2022/09/06 10:59:09;;;;;;;2.35;1.80;;;;;;;24.33;85.84;97933.00;18258629;32;20439;-63
2022/09/06 11:09:56;;;;;;;3.70;1.80;;;;;;;23.96;88.70;97958.06;18293131;32;20077;-63
2022/09/06 11:20:07;;;;;;;3.50;1.77;;;;;;;23.35;90.96;97948.81;18293246;32;20078;-63
2022/09/06 11:30:17;;;;;;;4.00;2.28;;;;;;;22.91;93.96;97970.62;18352437;32;20413;-62
2022/09/06 11:40:24;;;;;;;4.30;1.80;;;;;;;22.58;97.31;97976.22;18358739;32;20072;-62
2022/09/06 11:50:53;;;;;;;3.85;2.50;;;;;;;22.31;100.00;97981.19;18383187;32;20107;-62
2022/09/06 12:01:15;;;;;;;4.22;2.20;;;;;;;21.81;100.00;97989.25;18425762;32;20054;-62
2022/09/06 12:11:32;;;;;;;10.80;2.65;;;;;;;21.78;100.00;97978.12;18425308;32;20057;-62
2022/09/06 12:21:44;;;;;;;5.00;2.20;;;;;;;21.97;100.00;97941.84;18438652;32;20418;-61
2022/09/06 12:31:56;;;;;;;7.50;2.87;;;;;;;21.94;100.00;97921.31;18438424;32;20041;-62
2022/09/06 12:42:02;;;;;;;6.95;2.65;;;;;;;21.84;100.00;97869.41;18437668;32;20068;-62
2022/09/06 12:52:14;;;;;;;5.12;2.30;;;;;;;22.62;100.00;97906.31;18436018;32;20485;-62
2022/09/06 13:02:31;;;;;;;3.20;1.95;;;;;;;23.16;97.19;97901.72;18436937;32;20118;-62
2022/09/06 13:12:38;;;;;;;2.62;1.77;;;;;;;23.17;96.78;97901.38;18435686;32;20076;-62
2022/09/06 13:22:47;;;;;;;5.68;2.15;;;;;;;22.82;96.54;97893.56;18435498;32;20045;-62
2022/09/06 13:32:50;;;;;;;2.75;1.67;;;;;;;22.41;100.00;97894.59;18420568;32;20079;-62
2022/09/06 13:42:59;;;;;;;6.10;2.20;;;;;;;22.03;100.00;97895.63;18433806;32;20062;-62
2022/09/06 13:53:02;;;;;;;3.20;1.73;;;;;;;21.56;100.00;97930.56;18433024;32;20441;-62
2022/09/06 14:03:06;;;;;;;4.43;1.30;;;;;;;21.11;100.00;97917.44;18418676;32;20480;-62
2022/09/06 14:13:10;;;;;;;3.75;0.90;;;;;;;20.71;100.00;97909.59;18432262;32;20503;-62
2022/09/06 14:23:13;;;;;;;5.45;1.08;;;;;;;20.61;100.00;97878.56;18431861;32;20057;-61
2022/09/06 14:33:16;;;;;;;;;;;;;;;20.37;100.00;97853.66;18431888;32;20117;-62
2022/09/06 14:43:19;;;;;;;6.60;1.60;;;;;;;20.13;100.00;97855.00;18431117;32;20339;-62
2022/09/06 14:53:23;;;;;;;3.08;1.45;;;;;;;20.03;100.00;97852.63;18430608;32;20053;-62
2022/09/06 15:03:50;;;;;;;1.90;1.15;;;;;;;20.04;100.00;97832.28;18430582;32;20058;-62
2022/09/06 15:13:53;;;;;;;2.62;1.17;;;;;;;20.14;100.00;97809.97;18409213;32;20100;-62
2022/09/06 15:23:56;;;;;;;4.20;1.02;;;;;;;19.95;100.00;97805.69;18442058;32;20112;-62
2022/09/06 15:34:00;;;;;;;2.33;1.03;;;;;;;19.83;100.00;97821.22;18427816;32;20358;-62
2022/09/06 15:44:12;;;;;;;1.67;1.10;;;;;;;19.53;100.00;97879.50;18441247;32;20350;-62
2022/09/06 15:54:17;;;;;;;5.10;0.95;;;;;;;19.38;100.00;97778.53;18440728;32;20101;-62
2022/09/06 16:04:20;;;;;;;4.25;1.58;;;;;;;19.24;100.00;97732.94;18440141;32;20069;-61
2022/09/06 16:14:24;;;;;;;4.15;1.20;;;;;;;19.67;100.00;97717.47;18425567;32;20170;-62
2022/09/06 16:24:27;;;;;;;;;;;;;;;20.37;100.00;97702.59;18438995;32;20073;-62
2022/09/06 16:34:29;;;;;;;3.78;1.15;;;;;;;20.47;100.00;97691.22;18438487;32;19957;-62
2022/09/06 16:44:32;;;;;;;3.03;0.73;;;;;;;20.31;100.00;97683.56;18437572;32;20061;-61
2022/09/06 16:54:36;;;;;;;2.45;0.77;;;;;;;20.07;100.00;97666.94;18437083;32;20053;-62
2022/09/06 17:04:39;;;;;;;2.45;0.85;;;;;;;19.79;100.00;97668.19;18436110;32;20117;-62
2022/09/06 17:14:42;;;;;;;2.15;1.05;;;;;;;19.55;100.00;97673.47;18409516;32;20045;-62
2022/09/06 17:24:45;;;;;;;0.97;0.70;;;;;;;19.26;100.00;97677.78;18421024;32;20077;-61
2022/09/06 17:34:47;;;;;;;1.97;0.90;;;;;;;19.00;100.00;97667.66;18420100;32;20471;-62
2022/09/06 17:44:50;;;;;;;1.73;0.90;;;;;;;18.83;100.00;97665.75;18283712;32;20159;-62
2022/09/06 17:54:53;;;;;;;3.03;0.83;;;;;;;18.64;100.00;97657.88;18296097;32;20069;-62
2022/09/06 18:04:56;;;;;;;2.17;0.73;;;;;;;18.37;100.00;97656.25;18282698;32;20101;-61
2022/09/06 18:15:01;;;;;;;3.13;0.97;;;;;;;18.14;100.00;97663.81;18315554;32;20046;-62
2022/09/06 18:25:04;;;;;;;3.45;1.27;;;;;;;17.99;100.00;97659.59;18431676;32;20061;-62
2022/09/06 18:35:07;;;;;;;2.35;1.55;;;;;;;17.86;100.00;97669.53;18230761;32;20066;-61
2022/09/06 18:45:10;;;;;;;2.73;1.67;;;;;;;17.79;100.00;97664.50;18231735;32;20473;-62
2022/09/06 18:55:13;;;;;;;2.73;1.90;;;;;;;17.67;100.00;97669.78;18231241;32;20213;-62
2022/09/06 19:05:16;;;;;;;4.67;1.60;;;;;;;17.56;100.00;97664.59;18263228;32;20062;-62
2022/09/06 19:15:18;;;;;;;2.50;1.07;;;;;;;17.50;100.00;97682.25;18364808;32;20057;-62
2022/09/06 19:25:21;;;;;;;2.15;1.30;;;;;;;17.47;100.00;97703.94;18378036;32;20098;-61
2022/09/06 19:35:24;;;;;;;1.87;1.35;;;;;;;17.53;100.00;97697.22;18364069;32;20104;-61
2022/09/06 19:45:28;;;;;;;2.20;1.17;;;;;;;17.60;100.00;97681.97;18377142;32;20068;-62
2022/09/06 19:55:34;;;;;;;1.30;1.10;;;;;;;17.66;100.00;97679.09;18414326;32;20088;-61
2022/09/06 20:05:37;;;;;;;1.37;1.15;;;;;;;17.70;100.00;97680.09;18440185;32;20453;-62
2022/09/06 20:15:40;;;;;;;1.20;0.85;;;;;;;17.70;100.00;97682.81;18439445;32;20054;-61
2022/09/06 20:25:42;;;;;;;1.23;0.80;;;;;;;17.70;100.00;97694.56;18424808;32;20033;-61
2022/09/06 20:35:56;;;;;;;4.97;1.65;;;;;;;17.70;100.00;97680.09;18424474;32;20074;-61
2022/09/06 20:46:10;;;;;;;1.77;0.97;;;;;;;17.53;100.00;97785.50;18437409;32;20078;-61
2022/09/06 20:56:16;;;;;;;2.35;1.35;;;;;;;17.61;100.00;97754.69;18436889;32;20068;-62
2022/09/06 21:06:20;;;;;;;2.37;0.90;;;;;;;17.68;100.00;97737.00;18422296;32;20061;-62
2022/09/06 21:16:26;;;;;;;4.82;1.52;;;;;;;17.67;100.00;97730.75;18421195;32;20425;-61
2022/09/06 21:26:29;;;;;;;2.10;1.37;;;;;;;17.65;100.00;97710.28;18434933;32;20111;-61
2022/09/06 21:36:34;;;;;;;2.22;1.30;;;;;;;17.60;100.00;97692.13;18420493;32;20098;-61
2022/09/06 21:46:38;;;;;;;3.60;1.25;;;;;;;17.59;100.00;97688.56;18420068;32;20143;-61
2022/09/06 21:56:41;;;;;;;3.37;1.50;;;;;;;17.56;100.00;97685.66;18419048;32;20054;-61
2022/09/06 22:06:45;;;;;;;4.85;1.73;;;;;;;17.47;100.00;97679.34;18433004;32;20112;-61
2022/09/06 22:16:47;;;;;;;3.58;1.58;;;;;;;17.39;100.00;97697.31;18432207;32;20060;-61
2022/09/06 22:26:50;;;;;;;4.95;1.73;;;;;;;17.21;100.00;97697.25;18431521;32;20103;-61
2022/09/06 22:36:52;;;;;;;4.53;1.92;;;;;;;17.15;100.00;97697.69;18404874;32;20068;-61
2022/09/06 22:46:55;;;;;;;2.28;1.48;;;;;;;17.06;100.00;97694.88;18431038;32;20061;-61
2022/09/06 22:56:59;;;;;;;3.60;1.13;;;;;;;17.04;100.00;97692.47;18430761;32;20057;-63
2022/09/06 23:07:02;;;;;;;2.47;1.20;;;;;;;17.01;100.00;97686.84;18403842;32;20541;-62
2022/09/06 23:17:04;;;;;;;4.93;1.50;;;;;;;16.90;100.00;97683.53;18416627;32;20076;-61
2022/09/06 23:27:07;;;;;;;2.20;1.30;;;;;;;16.81;100.00;97669.78;18430231;32;20091;-62
2022/09/06 23:37:09;;;;;;;2.05;1.25;;;;;;;16.69;100.00;97661.34;18424378;32;20053;-61
2022/09/06 23:47:12;;;;;;;3.55;1.27;;;;;;;16.57;100.00;97662.72;18441432;32;20057;-61
2022/09/06 23:57:14;;;;;;;3.95;0.70;;;;;;;16.43;100.00;97651.03;18426636;32;20467;-61
